KSFM

Sanford Seacoast Regional Airport

Sanford, Maine, USA
METAR KSFM 182213Z AUTO 00000KT 10SM FEW055 26/24 A2968 RMK AO2 LTG DSNT ALQDS TSE07
Observed Flight Rules
Jun-18 @ 22:13 UTC (17 minutes ago) Visual Flight Rules
Visibility Clouds
10 miles
  • Few at 5,500' AGL
Temperatures Readings
Current 26°C / 79°F
Dewpoint 24°C / 75°F
Humidity 89%
Altimeter 29.68" Hg
Pressure 1005 hPa
Elevation 74
METAR KSFM 182213Z AUTO 00000KT 10SM FEW055 26/24 A2968 RMK AO2 LTG DSNT ALQDS TSE07
Observed Flight Rules
Jun-18 @ 22:13 UTC
(17 minutes ago)
VFR
Clouds
  • Few at 5,500' AGL
Temperature Dewpoint
26°C / 79°F 24°C / 75°F
Humidity Altimeter Pressure
89% 29.68" Hg 1005 hPa